All
Maitland Airport (Maitland South Australia) YMLD Weather
There is no TAF data available at YMLD or any nearby airports.
There is no METAR data available at YMLD. Showing METAR data for YMIN (26 mi SW).
Recent XML METAR history (no data for YMLD)
| Date | Time (ACST) | Flight Rules | Wind Dir. | Speed | Type | Height AGL (ft) | Visibility | Temp (°C) | Temp (°F) | Dew Point (°C) | Dew Point (°F) | Rel. Humid. | Pressure | Density Altitude | Remarks |
|---|---|---|---|---|---|---|---|---|---|---|---|---|---|---|---|
| 06-Sep | 08:30 | n/a | 170° | 5 kt | Missing | 13° | 55° | 11° | 51° | 88% | 1024 mb | -447 ft | |||
| 06-Sep | 07:30 | n/a | Calm | Missing | 11° | 51° | 10° | 50° | 94% | 1023 mb | -657 ft | ||||
| 06-Sep | 06:30 | n/a | 150° | 4 kt | Missing | 9° | 48° | 7° | 44° | 87% | 1022 mb | -868 ft | |||
| 06-Sep | 05:30 | n/a | 150° | 5 kt | Missing | 10° | 50° | 8° | 46° | 87% | 1022 mb | -748 ft | |||
| 06-Sep | 04:30 | n/a | 220° | 5 kt | Missing | 11° | 51° | 8° | 46° | 82% | 1021 mb | -598 ft | |||
| 06-Sep | 03:30 | n/a | 230° | 8 kt | Missing | 12° | 53° | 8° | 46° | 76% | 1021 mb | -478 ft | |||
| 06-Sep | 02:30 | n/a | 250° | 8 kt | Missing | 12° | 53° | 8° | 46° | 76% | 1021 mb | -478 ft | |||
| 06-Sep | 01:30 | n/a | 230° | 8 kt | Missing | 12° | 53° | 8° | 46° | 76% | 1021 mb | -478 ft | |||
| 06-Sep | 00:30 | n/a | 240° | 7 kt | Missing | 12° | 53° | 9° | 48° | 82% | 1021 mb | -478 ft | |||
| 05-Sep | 23:30 | n/a | 250° | 8 kt | Missing | 12° | 53° | 9° | 48° | 82% | 1021 mb | -478 ft | |||
| 05-Sep | 22:30 | n/a | 240° | 11 kt | Missing | 13° | 55° | 9° | 48° | 77% | 1021 mb | -358 ft | |||
| 05-Sep | 21:30 | n/a | 250° | 14 kt | Missing | 13° | 55° | 9° | 48° | 77% | 1021 mb | -358 ft | |||
| 05-Sep | 20:30 | n/a | 250° | 12 kt | Missing | 12° | 53° | 9° | 48° | 82% | 1020 mb | -449 ft | |||
| 05-Sep | 19:30 | n/a | 250° | 14 kt | Missing | 12° | 53° | 9° | 48° | 82% | 1019 mb | -419 ft | |||
| 05-Sep | 18:30 | n/a | 250° | 18 kt | Missing | 13° | 55° | 8° | 46° | 72% | 1018 mb | -270 ft | |||
| 05-Sep | 17:30 | n/a | 260° | 18 kt | Missing | 13° | 55° | 8° | 46° | 72% | 1017 mb | -240 ft | |||
| 05-Sep | 16:30 | n/a | 260° | 20 kt | Missing | 14° | 57° | 8° | 46° | 67% | 1017 mb | -120 ft | |||
| 05-Sep | 15:38 | n/a | 260° | 19 kt | Missing | 15° | 59° | 10° | 50° | 72% | 1016 mb | 30 ft | |||
| 05-Sep | 14:30 | n/a | 260° | 22 kt | Missing | 16° | 60° | 9° | 48° | 63% | 1016 mb | 150 ft | |||
| 05-Sep | 13:30 | n/a | 260° | 24 kt | Missing | 16° | 60° | 9° | 48° | 63% | 1015 mb | 179 ft | |||
| 05-Sep | 12:32 | n/a | 260° | 25 kt | Missing | 16° | 60° | 10° | 50° | 68% | 1014 mb | 209 ft | |||
| 05-Sep | 11:30 | n/a | 260° | 23 kt | Missing | 15° | 59° | 9° | 48° | 67% | 1014 mb | 89 ft | Wind gusting to 34 KT | ||
| 05-Sep | 10:35 | n/a | 270° | 25 kt | Missing | 14° | 57° | 9° | 48° | 72% | 1014 mb | -31 ft | Wind gusting to 35 KT | ||
| 05-Sep | 09:30 | n/a | 260° | 24 kt | Missing | 14° | 57° | 9° | 48° | 72% | 1013 mb | -2 ft | Wind gusting to 35 KT |
Login
| Your browser is unsupported. upgrade your browser |
